sensor_id;sensor_type;location;lat;lon;timestamp;temperature;humidity
2663;DHT22;49701;48.072;7.800;2022-07-18T00:01:38;18.40;96.30
2663;DHT22;49701;48.072;7.800;2022-07-18T00:04:04;18.50;96.40
2663;DHT22;49701;48.072;7.800;2022-07-18T00:06:29;18.60;96.30
2663;DHT22;49701;48.072;7.800;2022-07-18T00:08:55;18.70;96.40
2663;DHT22;49701;48.072;7.800;2022-07-18T00:11:21;18.80;96.40
2663;DHT22;49701;48.072;7.800;2022-07-18T00:13:47;18.80;96.40
2663;DHT22;49701;48.072;7.800;2022-07-18T00:16:12;18.90;96.50
2663;DHT22;49701;48.072;7.800;2022-07-18T00:18:38;18.90;96.50
2663;DHT22;49701;48.072;7.800;2022-07-18T00:21:04;19.00;96.60
2663;DHT22;49701;48.072;7.800;2022-07-18T00:23:29;19.00;96.60
2663;DHT22;49701;48.072;7.800;2022-07-18T00:25:55;19.00;96.70
2663;DHT22;49701;48.072;7.800;2022-07-18T00:28:21;19.00;96.70
2663;DHT22;49701;48.072;7.800;2022-07-18T00:30:46;19.00;96.90
2663;DHT22;49701;48.072;7.800;2022-07-18T00:33:12;18.90;97.10
2663;DHT22;49701;48.072;7.800;2022-07-18T00:35:37;18.70;97.30
2663;DHT22;49701;48.072;7.800;2022-07-18T00:38:03;18.70;97.50
2663;DHT22;49701;48.072;7.800;2022-07-18T00:40:30;18.70;97.70
2663;DHT22;49701;48.072;7.800;2022-07-18T00:42:55;18.70;98.00
2663;DHT22;49701;48.072;7.800;2022-07-18T00:45:21;18.60;98.20
2663;DHT22;49701;48.072;7.800;2022-07-18T00:47:47;18.60;98.40
2663;DHT22;49701;48.072;7.800;2022-07-18T00:50:16;18.60;98.60
2663;DHT22;49701;48.072;7.800;2022-07-18T00:52:41;18.60;98.80
2663;DHT22;49701;48.072;7.800;2022-07-18T00:55:07;18.60;98.90
2663;DHT22;49701;48.072;7.800;2022-07-18T00:57:34;18.50;99.20
2663;DHT22;49701;48.072;7.800;2022-07-18T00:59:59;18.40;99.50
2663;DHT22;49701;48.072;7.800;2022-07-18T01:02:44;18.30;99.90
2663;DHT22;49701;48.072;7.800;2022-07-18T01:05:09;18.10;99.90
2663;DHT22;49701;48.072;7.800;2022-07-18T01:07:36;18.00;99.90
2663;DHT22;49701;48.072;7.800;2022-07-18T01:10:03;18.00;99.90
2663;DHT22;49701;48.072;7.800;2022-07-18T01:12:30;17.90;99.90
2663;DHT22;49701;48.072;7.800;2022-07-18T01:14:56;17.90;99.90
2663;DHT22;49701;48.072;7.800;2022-07-18T01:17:23;17.80;99.90
2663;DHT22;49701;48.072;7.800;2022-07-18T01:19:49;17.70;99.90
2663;DHT22;49701;48.072;7.800;2022-07-18T01:22:16;17.70;99.90
2663;DHT22;49701;48.072;7.800;2022-07-18T01:24:43;17.70;99.90
2663;DHT22;49701;48.072;7.800;2022-07-18T01:27:12;17.70;99.90
2663;DHT22;49701;48.072;7.800;2022-07-18T01:29:38;17.60;99.90
2663;DHT22;49701;48.072;7.800;2022-07-18T01:32:05;17.50;99.90
2663;DHT22;49701;48.072;7.800;2022-07-18T01:34:31;17.50;99.90
2663;DHT22;49701;48.072;7.800;2022-07-18T01:36:56;17.60;99.90
2663;DHT22;49701;48.072;7.800;2022-07-18T01:39:22;17.60;99.90
2663;DHT22;49701;48.072;7.800;2022-07-18T01:41:58;17.70;99.90
2663;DHT22;49701;48.072;7.800;2022-07-18T01:44:24;17.70;99.90
2663;DHT22;49701;48.072;7.800;2022-07-18T01:46:50;17.80;99.90
2663;DHT22;49701;48.072;7.800;2022-07-18T01:49:16;17.80;99.90
2663;DHT22;49701;48.072;7.800;2022-07-18T01:51:46;17.80;99.90
2663;DHT22;49701;48.072;7.800;2022-07-18T01:54:11;17.70;99.90
2663;DHT22;49701;48.072;7.800;2022-07-18T01:56:37;17.70;99.90
2663;DHT22;49701;48.072;7.800;2022-07-18T01:59:03;17.60;99.90
2663;DHT22;49701;48.072;7.800;2022-07-18T02:01:28;17.50;99.90
2663;DHT22;49701;48.072;7.800;2022-07-18T02:03:54;17.30;99.90
2663;DHT22;49701;48.072;7.800;2022-07-18T02:06:19;17.30;99.90
2663;DHT22;49701;48.072;7.800;2022-07-18T02:08:45;17.20;99.90
2663;DHT22;49701;48.072;7.800;2022-07-18T02:11:10;17.10;99.90
2663;DHT22;49701;48.072;7.800;2022-07-18T02:13:36;17.10;99.90
2663;DHT22;49701;48.072;7.800;2022-07-18T02:16:02;17.00;99.90
2663;DHT22;49701;48.072;7.800;2022-07-18T02:18:27;16.90;99.90
2663;DHT22;49701;48.072;7.800;2022-07-18T02:20:57;16.80;99.90
2663;DHT22;49701;48.072;7.800;2022-07-18T02:23:23;16.70;99.90
2663;DHT22;49701;48.072;7.800;2022-07-18T02:25:49;16.70;99.90
2663;DHT22;49701;48.072;7.800;2022-07-18T02:28:14;16.70;99.90
2663;DHT22;49701;48.072;7.800;2022-07-18T02:30:40;16.70;99.90
2663;DHT22;49701;48.072;7.800;2022-07-18T02:33:05;16.80;99.90
2663;DHT22;49701;48.072;7.800;2022-07-18T02:35:31;16.90;99.90
2663;DHT22;49701;48.072;7.800;2022-07-18T02:37:56;17.00;99.90
2663;DHT22;49701;48.072;7.800;2022-07-18T02:40:22;17.00;99.90
2663;DHT22;49701;48.072;7.800;2022-07-18T02:42:48;17.00;99.90
2663;DHT22;49701;48.072;7.800;2022-07-18T02:45:13;17.00;99.90
2663;DHT22;49701;48.072;7.800;2022-07-18T02:47:39;17.00;99.90
2663;DHT22;49701;48.072;7.800;2022-07-18T02:50:06;17.00;99.90
2663;DHT22;49701;48.072;7.800;2022-07-18T02:52:31;17.00;99.90
2663;DHT22;49701;48.072;7.800;2022-07-18T02:54:57;17.00;99.90
2663;DHT22;49701;48.072;7.800;2022-07-18T02:57:23;17.00;99.90
2663;DHT22;49701;48.072;7.800;2022-07-18T02:59:49;17.00;99.90
2663;DHT22;49701;48.072;7.800;2022-07-18T03:02:14;17.00;99.90
2663;DHT22;49701;48.072;7.800;2022-07-18T03:04:40;17.00;99.90
2663;DHT22;49701;48.072;7.800;2022-07-18T03:07:05;17.00;99.90
2663;DHT22;49701;48.072;7.800;2022-07-18T03:09:31;17.00;99.90
2663;DHT22;49701;48.072;7.800;2022-07-18T03:11:56;16.90;99.90
2663;DHT22;49701;48.072;7.800;2022-07-18T03:14:22;16.90;99.90
2663;DHT22;49701;48.072;7.800;2022-07-18T03:16:48;16.90;99.90
2663;DHT22;49701;48.072;7.800;2022-07-18T03:19:14;16.80;99.90
2663;DHT22;49701;48.072;7.800;2022-07-18T03:21:39;16.80;99.90
2663;DHT22;49701;48.072;7.800;2022-07-18T03:24:05;16.70;99.90
2663;DHT22;49701;48.072;7.800;2022-07-18T03:26:30;16.70;99.90
2663;DHT22;49701;48.072;7.800;2022-07-18T03:28:56;16.60;99.90
2663;DHT22;49701;48.072;7.800;2022-07-18T03:31:22;16.60;99.90
2663;DHT22;49701;48.072;7.800;2022-07-18T03:33:47;16.50;99.90
2663;DHT22;49701;48.072;7.800;2022-07-18T03:36:13;16.40;99.90
2663;DHT22;49701;48.072;7.800;2022-07-18T03:38:39;16.20;99.90
2663;DHT22;49701;48.072;7.800;2022-07-18T03:41:11;16.00;99.90
2663;DHT22;49701;48.072;7.800;2022-07-18T03:43:38;15.90;99.90
2663;DHT22;49701;48.072;7.800;2022-07-18T03:46:04;15.80;99.90
2663;DHT22;49701;48.072;7.800;2022-07-18T03:48:30;15.60;99.90
2663;DHT22;49701;48.072;7.800;2022-07-18T03:50:55;15.50;99.90
2663;DHT22;49701;48.072;7.800;2022-07-18T03:53:21;15.50;99.90
2663;DHT22;49701;48.072;7.800;2022-07-18T03:55:47;15.40;99.90
2663;DHT22;49701;48.072;7.800;2022-07-18T03:58:12;15.40;99.90
2663;DHT22;49701;48.072;7.800;2022-07-18T04:00:38;15.40;99.90
2663;DHT22;49701;48.072;7.800;2022-07-18T04:03:04;15.40;99.90
2663;DHT22;49701;48.072;7.800;2022-07-18T04:05:29;15.50;99.90
2663;DHT22;49701;48.072;7.800;2022-07-18T04:07:55;15.60;99.90
2663;DHT22;49701;48.072;7.800;2022-07-18T04:10:20;15.70;99.90
2663;DHT22;49701;48.072;7.800;2022-07-18T04:12:49;15.80;99.90
2663;DHT22;49701;48.072;7.800;2022-07-18T04:15:15;15.90;99.90
2663;DHT22;49701;48.072;7.800;2022-07-18T04:17:41;15.90;99.90
2663;DHT22;49701;48.072;7.800;2022-07-18T04:20:08;16.00;99.90
2663;DHT22;49701;48.072;7.800;2022-07-18T04:22:57;16.10;99.90
2663;DHT22;49701;48.072;7.800;2022-07-18T04:25:25;16.20;99.90
2663;DHT22;49701;48.072;7.800;2022-07-18T04:27:51;16.20;99.90
2663;DHT22;49701;48.072;7.800;2022-07-18T04:30:19;16.20;99.90
2663;DHT22;49701;48.072;7.800;2022-07-18T04:32:45;16.10;99.90
2663;DHT22;49701;48.072;7.800;2022-07-18T04:35:11;16.20;99.90
2663;DHT22;49701;48.072;7.800;2022-07-18T04:37:38;16.30;99.90
2663;DHT22;49701;48.072;7.800;2022-07-18T04:40:04;16.30;99.90
2663;DHT22;49701;48.072;7.800;2022-07-18T04:42:30;16.30;99.90
2663;DHT22;49701;48.072;7.800;2022-07-18T04:44:57;16.20;99.90
2663;DHT22;49701;48.072;7.800;2022-07-18T04:47:23;16.20;99.90
2663;DHT22;49701;48.072;7.800;2022-07-18T04:49:49;16.10;99.90
2663;DHT22;49701;48.072;7.800;2022-07-18T04:52:14;16.00;99.90
2663;DHT22;49701;48.072;7.800;2022-07-18T04:54:40;16.00;99.90
2663;DHT22;49701;48.072;7.800;2022-07-18T04:57:06;15.90;99.90
2663;DHT22;49701;48.072;7.800;2022-07-18T04:59:31;15.90;99.90
2663;DHT22;49701;48.072;7.800;2022-07-18T05:01:57;15.90;99.90
2663;DHT22;49701;48.072;7.800;2022-07-18T05:04:22;15.90;99.90
2663;DHT22;49701;48.072;7.800;2022-07-18T05:06:48;15.80;99.90
2663;DHT22;49701;48.072;7.800;2022-07-18T05:09:14;15.80;99.90
2663;DHT22;49701;48.072;7.800;2022-07-18T05:11:39;15.80;99.90
2663;DHT22;49701;48.072;7.800;2022-07-18T05:14:05;15.90;99.90
2663;DHT22;49701;48.072;7.800;2022-07-18T05:16:30;15.90;99.90
2663;DHT22;49701;48.072;7.800;2022-07-18T05:18:56;16.00;99.90
2663;DHT22;49701;48.072;7.800;2022-07-18T05:21:22;16.00;99.90
2663;DHT22;49701;48.072;7.800;2022-07-18T05:23:47;16.10;99.90
2663;DHT22;49701;48.072;7.800;2022-07-18T05:26:13;16.20;99.90
2663;DHT22;49701;48.072;7.800;2022-07-18T05:28:39;16.30;99.90
2663;DHT22;49701;48.072;7.800;2022-07-18T05:31:04;16.40;99.90
2663;DHT22;49701;48.072;7.800;2022-07-18T05:33:30;16.50;99.90
2663;DHT22;49701;48.072;7.800;2022-07-18T05:35:55;16.70;99.90
2663;DHT22;49701;48.072;7.800;2022-07-18T05:38:21;16.80;99.90
2663;DHT22;49701;48.072;7.800;2022-07-18T05:40:47;16.90;99.90
2663;DHT22;49701;48.072;7.800;2022-07-18T05:43:12;17.10;99.90
2663;DHT22;49701;48.072;7.800;2022-07-18T05:45:38;17.30;99.90
2663;DHT22;49701;48.072;7.800;2022-07-18T05:48:04;17.40;99.90
2663;DHT22;49701;48.072;7.800;2022-07-18T05:50:30;17.50;99.90
2663;DHT22;49701;48.072;7.800;2022-07-18T05:52:55;17.70;99.90
2663;DHT22;49701;48.072;7.800;2022-07-18T05:55:22;17.90;99.90
2663;DHT22;49701;48.072;7.800;2022-07-18T05:57:47;18.00;99.90
2663;DHT22;49701;48.072;7.800;2022-07-18T06:00:16;18.20;99.90
2663;DHT22;49701;48.072;7.800;2022-07-18T06:02:42;18.40;99.90
2663;DHT22;49701;48.072;7.800;2022-07-18T06:05:08;18.70;99.90
2663;DHT22;49701;48.072;7.800;2022-07-18T06:07:34;18.80;99.90
2663;DHT22;49701;48.072;7.800;2022-07-18T06:10:00;19.00;99.90
2663;DHT22;49701;48.072;7.800;2022-07-18T06:12:29;19.20;99.90
2663;DHT22;49701;48.072;7.800;2022-07-18T06:14:56;19.30;99.90
2663;DHT22;49701;48.072;7.800;2022-07-18T06:17:22;19.50;99.90
2663;DHT22;49701;48.072;7.800;2022-07-18T06:19:47;19.70;99.90
2663;DHT22;49701;48.072;7.800;2022-07-18T06:22:13;19.80;99.90
2663;DHT22;49701;48.072;7.800;2022-07-18T06:24:39;20.00;99.90
2663;DHT22;49701;48.072;7.800;2022-07-18T06:27:04;20.10;99.90
2663;DHT22;49701;48.072;7.800;2022-07-18T06:29:30;20.30;99.90
2663;DHT22;49701;48.072;7.800;2022-07-18T06:31:55;20.50;99.90
2663;DHT22;49701;48.072;7.800;2022-07-18T06:34:21;20.70;99.90
2663;DHT22;49701;48.072;7.800;2022-07-18T06:36:46;20.80;99.90
2663;DHT22;49701;48.072;7.800;2022-07-18T06:39:12;21.10;99.90
2663;DHT22;49701;48.072;7.800;2022-07-18T06:41:40;21.20;99.90
2663;DHT22;49701;48.072;7.800;2022-07-18T06:44:06;21.40;99.90
2663;DHT22;49701;48.072;7.800;2022-07-18T06:46:31;21.60;99.90
2663;DHT22;49701;48.072;7.800;2022-07-18T06:48:57;21.80;99.90
2663;DHT22;49701;48.072;7.800;2022-07-18T06:51:23;22.00;99.90
2663;DHT22;49701;48.072;7.800;2022-07-18T06:53:50;22.20;99.00
2663;DHT22;49701;48.072;7.800;2022-07-18T06:56:16;22.30;97.60
2663;DHT22;49701;48.072;7.800;2022-07-18T06:58:42;22.40;96.20
2663;DHT22;49701;48.072;7.800;2022-07-18T07:01:17;22.50;95.50
2663;DHT22;49701;48.072;7.800;2022-07-18T07:03:43;22.50;95.20
2663;DHT22;49701;48.072;7.800;2022-07-18T07:06:09;22.70;95.00
2663;DHT22;49701;48.072;7.800;2022-07-18T07:08:34;22.80;94.80
2663;DHT22;49701;48.072;7.800;2022-07-18T07:11:01;22.80;94.60
2663;DHT22;49701;48.072;7.800;2022-07-18T07:13:26;23.00;94.60
2663;DHT22;49701;48.072;7.800;2022-07-18T07:15:52;23.20;93.60
2663;DHT22;49701;48.072;7.800;2022-07-18T07:18:18;23.30;93.00
2663;DHT22;49701;48.072;7.800;2022-07-18T07:20:43;23.40;92.80
2663;DHT22;49701;48.072;7.800;2022-07-18T07:23:09;23.60;92.50
2663;DHT22;49701;48.072;7.800;2022-07-18T07:25:37;23.80;91.60
2663;DHT22;49701;48.072;7.800;2022-07-18T07:28:03;24.00;90.70
2663;DHT22;49701;48.072;7.800;2022-07-18T07:30:30;24.10;90.20
2663;DHT22;49701;48.072;7.800;2022-07-18T07:32:56;24.10;89.20
2663;DHT22;49701;48.072;7.800;2022-07-18T07:35:21;24.30;87.90
2663;DHT22;49701;48.072;7.800;2022-07-18T07:37:49;24.40;86.90
2663;DHT22;49701;48.072;7.800;2022-07-18T07:40:16;24.70;85.40
2663;DHT22;49701;48.072;7.800;2022-07-18T07:42:42;25.00;85.20
2663;DHT22;49701;48.072;7.800;2022-07-18T07:45:08;25.20;84.60
2663;DHT22;49701;48.072;7.800;2022-07-18T07:47:34;25.40;83.90
2663;DHT22;49701;48.072;7.800;2022-07-18T07:50:00;25.60;83.50
2663;DHT22;49701;48.072;7.800;2022-07-18T07:52:25;25.80;82.20
2663;DHT22;49701;48.072;7.800;2022-07-18T07:54:53;26.00;81.80
2663;DHT22;49701;48.072;7.800;2022-07-18T07:57:18;26.20;81.00
2663;DHT22;49701;48.072;7.800;2022-07-18T07:59:44;26.50;79.60
2663;DHT22;49701;48.072;7.800;2022-07-18T08:02:09;26.70;78.40
2663;DHT22;49701;48.072;7.800;2022-07-18T08:04:35;26.90;76.90
2663;DHT22;49701;48.072;7.800;2022-07-18T08:07:00;27.20;75.80
2663;DHT22;49701;48.072;7.800;2022-07-18T08:09:26;27.40;75.20
2663;DHT22;49701;48.072;7.800;2022-07-18T08:11:51;27.70;74.70
2663;DHT22;49701;48.072;7.800;2022-07-18T08:14:17;27.90;74.00
2663;DHT22;49701;48.072;7.800;2022-07-18T08:16:42;28.10;72.90
2663;DHT22;49701;48.072;7.800;2022-07-18T08:19:08;28.30;72.50
2663;DHT22;49701;48.072;7.800;2022-07-18T08:21:33;28.50;71.80
2663;DHT22;49701;48.072;7.800;2022-07-18T08:23:59;28.80;71.60
2663;DHT22;49701;48.072;7.800;2022-07-18T08:26:24;29.00;71.40
2663;DHT22;49701;48.072;7.800;2022-07-18T08:28:50;29.20;71.00
2663;DHT22;49701;48.072;7.800;2022-07-18T08:31:15;29.50;70.40
2663;DHT22;49701;48.072;7.800;2022-07-18T08:33:43;29.80;69.50
2663;DHT22;49701;48.072;7.800;2022-07-18T08:36:08;30.00;69.20
2663;DHT22;49701;48.072;7.800;2022-07-18T08:38:34;30.20;69.20
2663;DHT22;49701;48.072;7.800;2022-07-18T08:40:59;30.40;67.90
2663;DHT22;49701;48.072;7.800;2022-07-18T08:43:25;30.40;67.60
2663;DHT22;49701;48.072;7.800;2022-07-18T08:45:55;30.60;66.90
2663;DHT22;49701;48.072;7.800;2022-07-18T08:48:23;30.90;65.80
2663;DHT22;49701;48.072;7.800;2022-07-18T08:50:49;31.10;64.50
2663;DHT22;49701;48.072;7.800;2022-07-18T08:53:15;31.10;62.50
2663;DHT22;49701;48.072;7.800;2022-07-18T08:55:41;31.10;61.70
2663;DHT22;49701;48.072;7.800;2022-07-18T08:58:06;31.10;61.40
2663;DHT22;49701;48.072;7.800;2022-07-18T09:00:33;31.30;60.90
2663;DHT22;49701;48.072;7.800;2022-07-18T09:03:00;31.50;59.50
2663;DHT22;49701;48.072;7.800;2022-07-18T09:05:26;31.70;58.90
2663;DHT22;49701;48.072;7.800;2022-07-18T09:07:51;31.90;57.70
2663;DHT22;49701;48.072;7.800;2022-07-18T09:10:41;32.20;57.60
2663;DHT22;49701;48.072;7.800;2022-07-18T09:13:07;32.40;57.00
2663;DHT22;49701;48.072;7.800;2022-07-18T09:15:32;32.60;56.80
2663;DHT22;49701;48.072;7.800;2022-07-18T09:17:58;32.80;56.20
2663;DHT22;49701;48.072;7.800;2022-07-18T09:20:24;32.80;55.80
2663;DHT22;49701;48.072;7.800;2022-07-18T09:22:49;32.90;55.40
2663;DHT22;49701;48.072;7.800;2022-07-18T09:25:21;33.00;53.60
2663;DHT22;49701;48.072;7.800;2022-07-18T09:27:50;33.20;54.00
2663;DHT22;49701;48.072;7.800;2022-07-18T09:33:10;33.50;53.20
2663;DHT22;49701;48.072;7.800;2022-07-18T09:35:36;33.60;53.30
2663;DHT22;49701;48.072;7.800;2022-07-18T09:38:10;33.70;52.80
2663;DHT22;49701;48.072;7.800;2022-07-18T09:43:03;34.10;52.00
2663;DHT22;49701;48.072;7.800;2022-07-18T09:48:04;34.40;51.60
2663;DHT22;49701;48.072;7.800;2022-07-18T09:50:34;34.60;52.00
2663;DHT22;49701;48.072;7.800;2022-07-18T09:55:26;34.90;50.20
2663;DHT22;49701;48.072;7.800;2022-07-18T09:58:25;35.10;50.10
2663;DHT22;49701;48.072;7.800;2022-07-18T10:00:43;35.10;49.70
2663;DHT22;49701;48.072;7.800;2022-07-18T10:03:09;35.40;48.90
2663;DHT22;49701;48.072;7.800;2022-07-18T10:05:36;35.50;48.20
2663;DHT22;49701;48.072;7.800;2022-07-18T10:08:02;35.70;47.50
2663;DHT22;49701;48.072;7.800;2022-07-18T10:10:29;35.90;47.00
2663;DHT22;49701;48.072;7.800;2022-07-18T10:12:57;35.90;46.90
2663;DHT22;49701;48.072;7.800;2022-07-18T10:15:28;35.90;46.70
2663;DHT22;49701;48.072;7.800;2022-07-18T10:17:55;35.90;46.60
2663;DHT22;49701;48.072;7.800;2022-07-18T10:20:39;36.00;46.60
2663;DHT22;49701;48.072;7.800;2022-07-18T10:23:09;36.00;46.90
2663;DHT22;49701;48.072;7.800;2022-07-18T10:25:36;36.10;47.00
2663;DHT22;49701;48.072;7.800;2022-07-18T10:28:08;36.20;46.40
2663;DHT22;49701;48.072;7.800;2022-07-18T10:30:45;36.40;46.40
2663;DHT22;49701;48.072;7.800;2022-07-18T10:36:04;36.70;46.70
2663;DHT22;49701;48.072;7.800;2022-07-18T10:38:30;36.90;46.10
2663;DHT22;49701;48.072;7.800;2022-07-18T10:41:02;37.10;46.00
2663;DHT22;49701;48.072;7.800;2022-07-18T10:45:55;37.40;44.60
2663;DHT22;49701;48.072;7.800;2022-07-18T10:48:51;37.30;44.00
2663;DHT22;49701;48.072;7.800;2022-07-18T10:51:18;37.40;44.00
2663;DHT22;49701;48.072;7.800;2022-07-18T10:53:56;37.40;43.80
2663;DHT22;49701;48.072;7.800;2022-07-18T10:58:57;37.70;43.10
2663;DHT22;49701;48.072;7.800;2022-07-18T11:01:25;37.90;42.50
2663;DHT22;49701;48.072;7.800;2022-07-18T11:04:27;38.00;42.70
2663;DHT22;49701;48.072;7.800;2022-07-18T11:09:45;38.30;42.10
2663;DHT22;49701;48.072;7.800;2022-07-18T11:15:08;38.50;41.90
2663;DHT22;49701;48.072;7.800;2022-07-18T11:22:59;39.00;41.10
2663;DHT22;49701;48.072;7.800;2022-07-18T11:25:26;39.00;40.80
2663;DHT22;49701;48.072;7.800;2022-07-18T11:27:53;39.20;40.90
2663;DHT22;49701;48.072;7.800;2022-07-18T11:30:20;39.50;41.30
2663;DHT22;49701;48.072;7.800;2022-07-18T11:32:46;39.60;40.80
2663;DHT22;49701;48.072;7.800;2022-07-18T11:35:13;39.70;40.60
2663;DHT22;49701;48.072;7.800;2022-07-18T11:37:46;39.70;40.50
2663;DHT22;49701;48.072;7.800;2022-07-18T11:40:13;39.60;40.40
2663;DHT22;49701;48.072;7.800;2022-07-18T11:42:40;39.60;40.60
2663;DHT22;49701;48.072;7.800;2022-07-18T11:45:08;39.60;40.50
2663;DHT22;49701;48.072;7.800;2022-07-18T11:47:48;39.60;40.20
2663;DHT22;49701;48.072;7.800;2022-07-18T11:50:15;39.70;40.40
2663;DHT22;49701;48.072;7.800;2022-07-18T11:52:42;39.80;40.30
2663;DHT22;49701;48.072;7.800;2022-07-18T11:55:08;40.00;40.10
2663;DHT22;49701;48.072;7.800;2022-07-18T11:57:33;40.20;40.00
2663;DHT22;49701;48.072;7.800;2022-07-18T12:00:00;40.20;39.30
2663;DHT22;49701;48.072;7.800;2022-07-18T12:02:26;40.30;39.60
2663;DHT22;49701;48.072;7.800;2022-07-18T12:04:51;40.30;39.60
2663;DHT22;49701;48.072;7.800;2022-07-18T12:07:27;40.40;39.30
2663;DHT22;49701;48.072;7.800;2022-07-18T12:09:53;40.30;39.00
2663;DHT22;49701;48.072;7.800;2022-07-18T12:12:20;40.40;38.80
2663;DHT22;49701;48.072;7.800;2022-07-18T12:15:04;40.40;38.60
2663;DHT22;49701;48.072;7.800;2022-07-18T12:17:30;40.40;37.90
2663;DHT22;49701;48.072;7.800;2022-07-18T12:20:17;40.40;38.10
2663;DHT22;49701;48.072;7.800;2022-07-18T12:23:03;40.50;38.60
2663;DHT22;49701;48.072;7.800;2022-07-18T12:25:56;40.70;38.40
2663;DHT22;49701;48.072;7.800;2022-07-18T12:28:24;40.90;38.00
2663;DHT22;49701;48.072;7.800;2022-07-18T12:30:51;41.00;37.60
2663;DHT22;49701;48.072;7.800;2022-07-18T12:33:17;41.00;37.80
2663;DHT22;49701;48.072;7.800;2022-07-18T12:35:43;41.00;37.50
2663;DHT22;49701;48.072;7.800;2022-07-18T12:40:51;41.20;37.70
2663;DHT22;49701;48.072;7.800;2022-07-18T12:43:25;41.20;37.40
2663;DHT22;49701;48.072;7.800;2022-07-18T12:45:51;41.40;37.60
2663;DHT22;49701;48.072;7.800;2022-07-18T12:48:17;41.60;37.00
2663;DHT22;49701;48.072;7.800;2022-07-18T12:50:44;41.70;37.10
2663;DHT22;49701;48.072;7.800;2022-07-18T12:53:10;41.80;36.90
2663;DHT22;49701;48.072;7.800;2022-07-18T12:55:37;41.90;36.10
2663;DHT22;49701;48.072;7.800;2022-07-18T12:58:03;41.90;36.30
2663;DHT22;49701;48.072;7.800;2022-07-18T13:00:31;41.90;36.60
2663;DHT22;49701;48.072;7.800;2022-07-18T13:02:58;42.00;36.50
2663;DHT22;49701;48.072;7.800;2022-07-18T13:05:25;42.20;36.20
2663;DHT22;49701;48.072;7.800;2022-07-18T13:07:50;42.20;35.90
2663;DHT22;49701;48.072;7.800;2022-07-18T13:10:16;42.10;36.00
2663;DHT22;49701;48.072;7.800;2022-07-18T13:12:41;42.20;35.60
2663;DHT22;49701;48.072;7.800;2022-07-18T13:15:07;42.10;35.40
2663;DHT22;49701;48.072;7.800;2022-07-18T13:17:33;42.30;35.00
2663;DHT22;49701;48.072;7.800;2022-07-18T13:19:59;42.40;35.00
2663;DHT22;49701;48.072;7.800;2022-07-18T13:22:24;42.20;35.10
2663;DHT22;49701;48.072;7.800;2022-07-18T13:24:50;42.20;35.40
2663;DHT22;49701;48.072;7.800;2022-07-18T13:27:15;42.20;35.40
2663;DHT22;49701;48.072;7.800;2022-07-18T13:29:45;42.20;35.50
2663;DHT22;49701;48.072;7.800;2022-07-18T13:32:11;42.20;35.60
2663;DHT22;49701;48.072;7.800;2022-07-18T13:34:37;42.20;35.60
2663;DHT22;49701;48.072;7.800;2022-07-18T13:37:02;42.20;35.50
2663;DHT22;49701;48.072;7.800;2022-07-18T13:39:28;42.10;35.50
2663;DHT22;49701;48.072;7.800;2022-07-18T13:41:53;42.10;35.80
2663;DHT22;49701;48.072;7.800;2022-07-18T13:44:20;42.00;36.00
2663;DHT22;49701;48.072;7.800;2022-07-18T13:46:45;41.90;36.40
2663;DHT22;49701;48.072;7.800;2022-07-18T13:49:11;41.90;36.10
2663;DHT22;49701;48.072;7.800;2022-07-18T13:51:37;41.80;36.10
2663;DHT22;49701;48.072;7.800;2022-07-18T13:54:04;41.80;36.50
2663;DHT22;49701;48.072;7.800;2022-07-18T13:56:30;41.70;36.80
2663;DHT22;49701;48.072;7.800;2022-07-18T13:58:56;41.60;37.00
2663;DHT22;49701;48.072;7.800;2022-07-18T14:01:22;41.70;36.70
2663;DHT22;49701;48.072;7.800;2022-07-18T14:03:47;41.60;36.50
2663;DHT22;49701;48.072;7.800;2022-07-18T14:06:13;41.80;36.70
2663;DHT22;49701;48.072;7.800;2022-07-18T14:08:38;41.80;36.50
2663;DHT22;49701;48.072;7.800;2022-07-18T14:11:05;41.80;36.10
2663;DHT22;49701;48.072;7.800;2022-07-18T14:13:31;41.70;36.30
2663;DHT22;49701;48.072;7.800;2022-07-18T14:15:56;41.50;36.60
2663;DHT22;49701;48.072;7.800;2022-07-18T14:18:22;41.50;36.50
2663;DHT22;49701;48.072;7.800;2022-07-18T14:20:47;41.50;36.40
2663;DHT22;49701;48.072;7.800;2022-07-18T14:23:13;41.40;36.60
2663;DHT22;49701;48.072;7.800;2022-07-18T14:25:39;41.30;37.00
2663;DHT22;49701;48.072;7.800;2022-07-18T14:28:04;41.10;37.10
2663;DHT22;49701;48.072;7.800;2022-07-18T14:30:30;41.10;36.90
2663;DHT22;49701;48.072;7.800;2022-07-18T14:32:56;41.10;36.80
2663;DHT22;49701;48.072;7.800;2022-07-18T14:35:21;41.00;36.90
2663;DHT22;49701;48.072;7.800;2022-07-18T14:37:47;41.00;37.10
2663;DHT22;49701;48.072;7.800;2022-07-18T14:40:13;41.00;37.10
2663;DHT22;49701;48.072;7.800;2022-07-18T14:42:38;40.90;36.90
2663;DHT22;49701;48.072;7.800;2022-07-18T14:45:05;40.90;36.90
2663;DHT22;49701;48.072;7.800;2022-07-18T14:47:31;40.80;37.40
2663;DHT22;49701;48.072;7.800;2022-07-18T14:49:58;40.70;37.40
2663;DHT22;49701;48.072;7.800;2022-07-18T14:52:24;40.60;37.70
2663;DHT22;49701;48.072;7.800;2022-07-18T14:54:49;40.60;38.00
2663;DHT22;49701;48.072;7.800;2022-07-18T14:57:15;40.50;38.00
2663;DHT22;49701;48.072;7.800;2022-07-18T14:59:41;40.50;38.20
2663;DHT22;49701;48.072;7.800;2022-07-18T15:02:07;40.60;38.20
2663;DHT22;49701;48.072;7.800;2022-07-18T15:04:34;40.50;38.10
2663;DHT22;49701;48.072;7.800;2022-07-18T15:06:59;40.40;38.00
2663;DHT22;49701;48.072;7.800;2022-07-18T15:09:25;40.40;38.10
2663;DHT22;49701;48.072;7.800;2022-07-18T15:11:51;40.40;38.40
2663;DHT22;49701;48.072;7.800;2022-07-18T15:14:16;40.20;38.30
2663;DHT22;49701;48.072;7.800;2022-07-18T15:16:42;40.10;38.20
2663;DHT22;49701;48.072;7.800;2022-07-18T15:19:07;40.10;38.20
2663;DHT22;49701;48.072;7.800;2022-07-18T15:21:33;40.00;38.20
2663;DHT22;49701;48.072;7.800;2022-07-18T15:23:59;40.00;38.30
2663;DHT22;49701;48.072;7.800;2022-07-18T15:26:25;39.90;38.70
2663;DHT22;49701;48.072;7.800;2022-07-18T15:28:51;39.70;39.20
2663;DHT22;49701;48.072;7.800;2022-07-18T15:31:16;39.70;39.30
2663;DHT22;49701;48.072;7.800;2022-07-18T15:33:42;39.70;39.40
2663;DHT22;49701;48.072;7.800;2022-07-18T15:36:08;39.60;39.20
2663;DHT22;49701;48.072;7.800;2022-07-18T15:38:33;39.40;39.20
2663;DHT22;49701;48.072;7.800;2022-07-18T15:40:59;39.30;40.00
2663;DHT22;49701;48.072;7.800;2022-07-18T15:43:25;39.30;39.70
2663;DHT22;49701;48.072;7.800;2022-07-18T15:45:50;39.20;39.90
2663;DHT22;49701;48.072;7.800;2022-07-18T15:48:16;39.10;39.70
2663;DHT22;49701;48.072;7.800;2022-07-18T15:50:41;39.10;40.10
2663;DHT22;49701;48.072;7.800;2022-07-18T15:53:07;39.00;40.30
2663;DHT22;49701;48.072;7.800;2022-07-18T15:55:32;38.90;40.10
2663;DHT22;49701;48.072;7.800;2022-07-18T15:57:59;38.80;39.70
2663;DHT22;49701;48.072;7.800;2022-07-18T16:00:26;38.60;40.00
2663;DHT22;49701;48.072;7.800;2022-07-18T16:02:52;38.50;40.10
2663;DHT22;49701;48.072;7.800;2022-07-18T16:05:17;38.30;40.20
2663;DHT22;49701;48.072;7.800;2022-07-18T16:07:43;38.10;40.40
2663;DHT22;49701;48.072;7.800;2022-07-18T16:10:09;38.00;40.80
2663;DHT22;49701;48.072;7.800;2022-07-18T16:12:35;38.00;40.70
2663;DHT22;49701;48.072;7.800;2022-07-18T16:15:00;37.90;40.80